Time;durP1;ratioP1;P1;durP2;ratioP2;P2;SDS_P1;SDS_P2;PMS_P1;PMS_P2;Temp;Humidity;BMP_temperature;BMP_pressure;BME280_temperature;BME280_humidity;BME280_pressure;Samples;Min_cycle;Max_cycle;Signal;HPM_P1;HPM_P2
2023/01/13 00:02:14;;;;;;;0.30;0.30;;;;;;;9.76;91.88;99965.66;5134295;28;20091;-83
2023/01/13 00:04:45;;;;;;;0.43;0.43;;;;;;;9.72;90.71;99968.44;5138295;28;20041;-83
2023/01/13 00:07:16;;;;;;;2.80;0.73;;;;;;;9.70;90.72;99952.78;5134527;28;20534;-83
2023/01/13 00:09:46;;;;;;;0.30;0.30;;;;;;;9.67;90.30;99960.72;5138479;28;20038;-83
2023/01/13 00:12:17;;;;;;;0.30;0.30;;;;;;;9.65;89.58;99957.31;5133179;28;20043;-84
2023/01/13 00:14:47;;;;;;;0.30;0.30;;;;;;;9.68;88.92;99957.22;5145219;28;20253;-83
2023/01/13 00:17:17;;;;;;;0.30;0.30;;;;;;;9.65;88.39;99956.47;5156161;28;20078;-83
2023/01/13 00:19:48;;;;;;;0.30;0.30;;;;;;;9.59;87.84;99953.13;5134086;28;20038;-84
2023/01/13 00:22:19;;;;;;;0.30;0.30;;;;;;;9.62;87.29;99952.19;5151608;28;20046;-83
2023/01/13 00:24:49;;;;;;;0.35;0.35;;;;;;;9.56;85.95;99955.88;5134599;28;20034;-84
2023/01/13 00:27:22;;;;;;;0.20;0.20;;;;;;;9.54;86.14;99955.06;5134501;28;20027;-83
2023/01/13 00:29:52;;;;;;;0.20;0.20;;;;;;;9.49;85.36;99937.81;5121821;28;20074;-84
2023/01/13 00:32:23;;;;;;;0.30;0.30;;;;;;;9.50;84.64;99957.84;5121846;28;20031;-84
2023/01/13 00:34:54;;;;;;;0.22;0.22;;;;;;;9.50;84.38;99943.00;5135611;28;20046;-83
2023/01/13 00:37:25;;;;;;;0.20;0.20;;;;;;;9.53;84.70;99944.66;5114758;28;20050;-82
2023/01/13 00:39:56;;;;;;;0.30;0.30;;;;;;;9.48;84.45;99949.19;5117492;28;20031;-82
2023/01/13 00:45:16;;;;;;;0.30;0.30;;;;;;;9.52;84.22;99956.03;5136596;28;21430;-82
2023/01/13 00:47:46;;;;;;;0.22;0.22;;;;;;;9.49;84.21;99945.66;5122580;28;20024;-82
2023/01/13 00:50:17;;;;;;;0.88;0.85;;;;;;;9.48;84.22;99954.41;5134413;28;20033;-84
2023/01/13 00:52:47;;;;;;;0.30;0.30;;;;;;;9.45;84.30;99951.03;5119745;28;20062;-83
2023/01/13 00:55:18;;;;;;;0.30;0.30;;;;;;;9.45;84.17;99950.16;5153016;28;20608;-83
2023/01/13 00:57:48;;;;;;;3.72;0.95;;;;;;;9.46;84.15;99946.63;5141490;28;20038;-83
2023/01/13 01:00:19;;;;;;;0.20;0.20;;;;;;;9.44;84.16;99949.31;5138776;28;20285;-83
2023/01/13 01:02:49;;;;;;;0.28;0.28;;;;;;;9.50;83.54;99952.63;5121722;28;20027;-83
2023/01/13 01:05:20;;;;;;;0.30;0.30;;;;;;;9.49;83.66;99946.53;5135922;28;20037;-83
2023/01/13 01:07:50;;;;;;;0.30;0.30;;;;;;;9.48;83.81;99936.09;5136516;28;20544;-82
2023/01/13 01:10:21;;;;;;;0.30;0.30;;;;;;;9.48;84.14;99936.09;5136594;28;20737;-82
2023/01/13 01:12:51;;;;;;;0.30;0.30;;;;;;;9.46;84.53;99949.25;5127844;28;20033;-82
2023/01/13 01:15:22;;;;;;;0.28;0.28;;;;;;;9.48;83.76;99967.50;5153335;28;20051;-83
2023/01/13 01:17:52;;;;;;;0.50;0.50;;;;;;;9.47;82.56;99974.53;5120879;28;20775;-82
2023/01/13 01:20:23;;;;;;;0.30;0.30;;;;;;;9.45;82.85;99969.34;5137716;28;20085;-83
2023/01/13 01:22:53;;;;;;;0.30;0.30;;;;;;;9.48;82.59;99970.13;5124797;28;20683;-83
2023/01/13 01:25:24;;;;;;;0.50;0.50;;;;;;;9.47;83.17;99968.41;5155472;28;20590;-83
2023/01/13 01:27:54;;;;;;;0.30;0.30;;;;;;;9.44;83.34;99965.03;5133936;28;20045;-83
2023/01/13 01:30:25;;;;;;;0.30;0.30;;;;;;;9.40;80.89;99947.69;5137951;28;20051;-84
2023/01/13 01:32:56;;;;;;;0.45;0.45;;;;;;;9.38;80.75;99920.69;5118520;28;20046;-83
2023/01/13 01:35:26;;;;;;;0.30;0.30;;;;;;;9.24;77.22;99933.41;5141046;28;20116;-83
2023/01/13 01:38:00;;;;;;;0.30;0.30;;;;;;;9.16;76.13;99943.28;5142582;28;20074;-83
2023/01/13 01:40:30;;;;;;;0.30;0.30;;;;;;;9.15;74.81;99968.63;5126157;28;20045;-83
2023/01/13 01:45:51;;;;;;;0.30;0.30;;;;;;;9.00;73.78;99982.22;5138081;28;20038;-82
2023/01/13 01:48:22;;;;;;;0.30;0.30;;;;;;;8.95;73.31;99974.50;5136267;28;20019;-84
2023/01/13 01:50:53;;;;;;;0.30;0.30;;;;;;;8.93;72.42;99981.56;5135079;28;20057;-83
2023/01/13 01:53:28;;;;;;;0.30;0.30;;;;;;;8.84;72.04;99967.00;5122590;28;20037;-82
2023/01/13 01:56:00;;;;;;;0.30;0.30;;;;;;;8.88;71.34;99973.00;5115986;28;20181;-82
2023/01/13 01:58:44;;;;;;;0.40;0.40;;;;;;;8.81;71.56;99970.56;5114766;28;20085;-82
2023/01/13 02:01:14;;;;;;;0.38;0.38;;;;;;;8.74;69.83;99981.28;5130632;28;20066;-82
2023/01/13 02:03:53;;;;;;;0.30;0.30;;;;;;;8.72;70.30;99973.47;5124263;28;20777;-83
2023/01/13 02:06:24;;;;;;;0.30;0.30;;;;;;;8.68;69.94;99969.25;5141162;28;20046;-83
2023/01/13 02:08:56;;;;;;;0.30;0.30;;;;;;;8.63;70.63;99974.63;5152423;28;20031;-82
2023/01/13 02:14:27;;;;;;;0.30;0.30;;;;;;;8.61;70.61;99984.25;5137505;28;20035;-82
2023/01/13 02:17:22;;;;;;;0.30;0.30;;;;;;;8.56;71.25;99983.56;5152517;28;20079;-82
2023/01/13 02:20:14;;;;;;;0.22;0.22;;;;;;;8.56;70.85;99990.53;5130643;28;20043;-82
2023/01/13 02:23:03;;;;;;;0.30;0.30;;;;;;;8.59;71.12;99990.44;5134188;28;20050;-83
2023/01/13 02:25:39;;;;;;;0.30;0.30;;;;;;;8.55;71.87;99991.47;5123423;28;20102;-83
2023/01/13 02:28:35;;;;;;;0.30;0.30;;;;;;;8.52;71.97;99984.53;5137368;28;20034;-83
2023/01/13 02:34:43;;;;;;;0.20;0.20;;;;;;;8.54;72.32;99989.75;5135622;28;20401;-83
2023/01/13 02:37:27;;;;;;;0.30;0.30;;;;;;;8.50;72.18;99984.59;5040101;29;20128;-82
2023/01/13 02:40:22;;;;;;;0.45;0.45;;;;;;;8.44;71.96;99991.72;5129361;28;20043;-83
2023/01/13 02:46:03;;;;;;;0.40;0.40;;;;;;;8.47;72.62;99979.44;5152013;28;20090;-83
2023/01/13 02:48:36;;;;;;;0.22;0.22;;;;;;;8.45;73.19;99976.03;5137337;28;20445;-83
2023/01/13 02:51:12;;;;;;;0.30;0.30;;;;;;;8.44;71.88;99963.84;5133166;28;20039;-83
2023/01/13 02:54:04;;;;;;;0.30;0.30;;;;;;;8.45;72.65;99968.19;5154636;28;20035;-84
2023/01/13 02:56:40;;;;;;;1.65;1.55;;;;;;;8.33;71.94;99968.53;5133639;28;20057;-83
2023/01/13 02:59:11;;;;;;;0.30;0.30;;;;;;;8.38;71.58;99964.03;5141313;28;20038;-81
2023/01/13 03:01:42;;;;;;;0.40;0.40;;;;;;;8.32;71.59;99961.59;5133182;28;20610;-82
2023/01/13 03:04:33;;;;;;;1.30;1.20;;;;;;;8.35;71.77;99957.13;5126585;28;20037;-82
2023/01/13 03:07:11;;;;;;;1.90;0.98;;;;;;;8.45;72.18;99944.66;5135099;28;20042;-82
2023/01/13 03:09:48;;;;;;;0.30;0.30;;;;;;;8.35;71.95;99940.59;5134436;28;20035;-84
2023/01/13 03:12:22;;;;;;;0.40;0.40;;;;;;;8.35;72.20;99951.03;5140044;28;20228;-83
2023/01/13 03:15:02;;;;;;;;;;;;;;;8.32;71.54;99948.50;5131970;28;20039;-83
2023/01/13 03:17:41;;;;;;;0.30;0.30;;;;;;;8.35;72.26;99953.66;5158979;28;20356;-83
2023/01/13 03:20:17;;;;;;;0.20;0.20;;;;;;;8.33;72.51;99956.34;5133729;28;20043;-82
2023/01/13 03:22:58;;;;;;;0.30;0.30;;;;;;;8.27;72.20;99953.88;5133031;28;20050;-83
2023/01/13 03:25:33;;;;;;;2.83;1.15;;;;;;;8.22;71.98;99955.78;5150678;28;20051;-83
2023/01/13 03:28:19;;;;;;;1.33;0.77;;;;;;;8.27;71.97;99953.03;5115137;28;20647;-83
2023/01/13 03:31:00;;;;;;;0.30;0.30;;;;;;;8.21;72.73;99953.22;5128572;28;20045;-82
2023/01/13 03:33:36;;;;;;;1.58;1.48;;;;;;;8.24;72.95;99947.88;5117112;28;20027;-83
2023/01/13 03:36:11;;;;;;;0.30;0.30;;;;;;;8.18;72.88;99946.34;5146696;28;20133;-83
2023/01/13 03:38:56;;;;;;;0.43;0.43;;;;;;;8.14;73.14;99963.00;5151812;28;20034;-83
2023/01/13 03:41:30;;;;;;;0.70;0.70;;;;;;;8.09;73.18;99960.50;5119453;28;20035;-83
2023/01/13 03:44:22;;;;;;;0.50;0.50;;;;;;;8.11;72.43;99958.72;5152314;28;20054;-83
2023/01/13 03:47:02;;;;;;;0.30;0.30;;;;;;;8.15;73.23;99960.31;5125075;28;20041;-83
2023/01/13 03:49:59;;;;;;;0.50;0.50;;;;;;;8.09;73.05;99949.22;5133819;28;20038;-83
2023/01/13 03:52:52;;;;;;;0.30;0.30;;;;;;;8.08;73.11;99950.97;5132011;28;20034;-82
2023/01/13 03:55:31;;;;;;;0.82;0.82;;;;;;;8.02;73.22;99951.16;5134228;28;20389;-83
2023/01/13 03:58:15;;;;;;;0.40;0.40;;;;;;;7.96;73.63;99954.78;5132005;28;20798;-82
2023/01/13 04:00:58;;;;;;;0.35;0.35;;;;;;;8.01;73.29;99954.66;5148590;28;20047;-82
2023/01/13 04:03:45;;;;;;;0.40;0.40;;;;;;;8.04;73.66;99951.97;5147847;28;20030;-82
2023/01/13 04:06:32;;;;;;;0.63;0.63;;;;;;;7.92;73.85;99957.53;5115137;28;20046;-83
2023/01/13 04:09:27;;;;;;;0.30;0.30;;;;;;;7.90;73.83;99959.31;5151083;28;20089;-83
2023/01/13 04:12:07;;;;;;;0.30;0.30;;;;;;;8.03;74.49;99965.94;5151313;28;20453;-82
2023/01/13 04:14:38;;;;;;;0.55;0.55;;;;;;;7.91;74.39;99961.03;5121275;28;20038;-83
2023/01/13 04:17:09;;;;;;;1.00;0.95;;;;;;;7.91;74.18;99966.25;5135659;28;20058;-83
2023/01/13 04:19:39;;;;;;;0.20;0.20;;;;;;;7.94;74.18;99976.63;5133509;28;20034;-84
2023/01/13 04:22:10;;;;;;;1.88;1.70;;;;;;;7.92;74.35;99970.59;5150612;28;20082;-82
2023/01/13 04:24:40;;;;;;;0.70;0.70;;;;;;;7.89;74.10;99968.91;5133311;28;20034;-84
2023/01/13 04:27:11;;;;;;;1.02;0.73;;;;;;;7.92;74.44;99973.19;5148150;28;20050;-83
2023/01/13 04:29:41;;;;;;;1.85;1.10;;;;;;;7.83;74.58;99969.09;5136983;28;20038;-83
2023/01/13 04:32:12;;;;;;;0.32;0.32;;;;;;;7.84;74.16;99971.66;5134121;28;20087;-83
2023/01/13 04:34:42;;;;;;;1.70;1.17;;;;;;;7.90;74.10;99970.63;5124678;28;20100;-82
2023/01/13 04:37:13;;;;;;;0.85;0.70;;;;;;;7.77;74.35;99974.50;5151667;28;20047;-82
2023/01/13 04:39:45;;;;;;;0.30;0.30;;;;;;;7.78;74.14;99964.00;5139221;28;20877;-83
2023/01/13 04:42:15;;;;;;;0.95;0.95;;;;;;;7.79;74.04;99978.78;5137209;28;20120;-83
2023/01/13 04:44:46;;;;;;;0.30;0.30;;;;;;;7.79;74.67;99972.69;5135288;28;20023;-83
2023/01/13 04:47:16;;;;;;;5.82;1.65;;;;;;;7.85;74.17;99962.94;5154625;28;20178;-83
2023/01/13 04:49:47;;;;;;;0.30;0.30;;;;;;;7.81;74.45;99961.28;5152055;28;20061;-83
2023/01/13 04:52:17;;;;;;;0.30;0.30;;;;;;;7.83;74.01;99966.50;5133965;28;20042;-81
2023/01/13 04:54:48;;;;;;;0.77;0.73;;;;;;;7.85;74.17;99962.09;5154101;28;20037;-83
2023/01/13 04:57:18;;;;;;;0.30;0.30;;;;;;;7.81;74.67;99955.22;5120992;28;20038;-83
2023/01/13 04:59:48;;;;;;;0.30;0.30;;;;;;;7.87;74.57;99935.03;5142073;28;20038;-83
2023/01/13 05:02:19;;;;;;;1.55;1.15;;;;;;;7.83;74.58;99943.81;5136947;28;20042;-83
2023/01/13 05:04:49;;;;;;;3.92;2.53;;;;;;;7.86;74.62;99948.97;5152484;28;20030;-82
2023/01/13 05:07:20;;;;;;;1.15;1.10;;;;;;;7.85;74.52;99942.03;5151807;28;20632;-83
2023/01/13 05:09:50;;;;;;;0.65;0.65;;;;;;;7.91;74.54;99942.75;5120156;28;20035;-83
2023/01/13 05:18:01;;;;;;;0.95;0.63;;;;;;;7.82;74.58;99947.34;5145899;28;20101;-82
2023/01/13 05:20:32;;;;;;;0.75;0.75;;;;;;;7.79;74.66;99938.72;5136297;28;20035;-82
2023/01/13 05:25:52;;;;;;;0.52;0.52;;;;;;;7.76;74.64;99965.78;5136531;28;20497;-84
2023/01/13 05:28:22;;;;;;;2.45;1.15;;;;;;;7.77;74.11;99953.59;5121868;28;20045;-83
2023/01/13 05:30:53;;;;;;;8.77;1.98;;;;;;;7.77;74.08;99951.84;5140310;28;20487;-83
2023/01/13 05:33:23;;;;;;;0.30;0.30;;;;;;;7.73;74.21;99955.41;5123176;28;20122;-83
2023/01/13 05:35:54;;;;;;;7.72;1.27;;;;;;;7.76;74.03;99947.50;5155348;28;20292;-84
2023/01/13 05:38:24;;;;;;;1.23;1.17;;;;;;;7.70;74.31;99958.13;5120883;28;20034;-83
2023/01/13 05:43:47;;;;;;;0.88;0.70;;;;;;;7.69;74.37;99979.91;5139487;28;20031;-82
2023/01/13 05:46:17;;;;;;;0.40;0.40;;;;;;;7.64;74.07;99979.19;5137792;28;20041;-82
2023/01/13 05:48:48;;;;;;;0.30;0.30;;;;;;;7.67;74.17;99972.13;5137921;28;20034;-82
2023/01/13 05:51:21;;;;;;;0.30;0.30;;;;;;;7.65;73.94;99976.53;5151490;28;20041;-82
2023/01/13 05:53:51;;;;;;;3.83;0.88;;;;;;;7.64;73.58;99972.22;5121373;28;20099;-83
2023/01/13 05:56:22;;;;;;;0.50;0.50;;;;;;;7.66;73.75;99969.53;5114729;28;20137;-82
2023/01/13 05:58:52;;;;;;;0.30;0.30;;;;;;;7.66;74.37;99977.38;5137763;28;20035;-82
2023/01/13 06:01:23;;;;;;;0.50;0.50;;;;;;;7.68;73.80;99972.97;5133325;28;20145;-83
2023/01/13 06:03:53;;;;;;;0.30;0.30;;;;;;;7.65;74.01;99973.03;5134105;28;20022;-82
2023/01/13 06:06:24;;;;;;;0.65;0.65;;;;;;;7.69;74.14;99977.31;5132637;28;20035;-83
2023/01/13 06:08:54;;;;;;;0.30;0.30;;;;;;;7.67;74.26;99984.31;5134966;28;20384;-82
2023/01/13 06:11:24;;;;;;;0.30;0.30;;;;;;;7.68;74.33;99994.75;5114658;28;20045;-82
2023/01/13 06:13:55;;;;;;;0.30;0.30;;;;;;;7.66;74.63;99987.81;5138024;28;20069;-81
2023/01/13 06:16:25;;;;;;;0.50;0.50;;;;;;;7.67;74.42;99985.19;5134645;28;20051;-83
2023/01/13 06:18:56;;;;;;;0.30;0.30;;;;;;;7.65;74.58;100001.78;5135357;28;20085;-82
2023/01/13 06:21:26;;;;;;;0.52;0.52;;;;;;;7.65;74.87;99999.16;5117706;28;20053;-83
2023/01/13 06:23:58;;;;;;;0.30;0.30;;;;;;;7.63;74.72;99993.16;5119103;28;20165;-81
2023/01/13 06:26:35;;;;;;;0.57;0.57;;;;;;;7.63;74.88;99990.53;5136622;28;20040;-82
2023/01/13 06:29:07;;;;;;;0.20;0.20;;;;;;;7.64;75.23;99992.25;5137068;28;20027;-84
2023/01/13 06:31:38;;;;;;;0.30;0.30;;;;;;;7.59;75.43;99991.50;5151156;28;20046;-83
2023/01/13 06:34:12;;;;;;;0.30;0.30;;;;;;;7.57;75.69;100000.22;5153991;28;20038;-83
2023/01/13 06:36:46;;;;;;;0.30;0.30;;;;;;;7.57;75.42;99995.00;5151986;28;20046;-84
2023/01/13 06:39:26;;;;;;;0.30;0.30;;;;;;;7.59;75.42;99996.72;5137696;28;20077;-83
2023/01/13 06:44:52;;;;;;;0.40;0.40;;;;;;;7.58;74.78;100008.94;5134309;28;20050;-84
2023/01/13 06:47:23;;;;;;;0.30;0.30;;;;;;;7.60;73.98;100011.50;5146515;28;20061;-82
2023/01/13 06:49:53;;;;;;;1.45;1.10;;;;;;;7.61;73.37;100010.59;5148132;28;20039;-82
2023/01/13 06:52:26;;;;;;;0.30;0.30;;;;;;;7.59;73.15;100009.78;5134771;28;20046;-82
2023/01/13 06:54:56;;;;;;;0.60;0.60;;;;;;;7.59;72.47;100020.22;5125524;28;20084;-82
2023/01/13 06:57:27;;;;;;;0.30;0.30;;;;;;;7.62;72.70;100013.16;5137538;28;20046;-81
2023/01/13 06:59:57;;;;;;;1.10;0.82;;;;;;;7.57;72.60;100028.09;5132226;28;20027;-82
2023/01/13 07:02:28;;;;;;;0.30;0.30;;;;;;;7.56;72.27;100035.06;5142399;28;20031;-82
2023/01/13 07:04:58;;;;;;;0.30;0.30;;;;;;;7.59;72.13;100031.53;5149112;28;20407;-81
2023/01/13 07:07:29;;;;;;;1.58;1.38;;;;;;;7.50;71.80;100024.78;5129891;28;20134;-83
2023/01/13 07:09:59;;;;;;;0.40;0.40;;;;;;;7.49;71.92;100049.16;5143193;28;20027;-81
2023/01/13 07:12:30;;;;;;;0.20;0.20;;;;;;;7.52;72.28;100043.88;5124026;28;20038;-83
2023/01/13 07:15:18;;;;;;;0.32;0.32;;;;;;;7.46;72.39;100049.25;5118259;29;20062;-81
2023/01/13 07:17:49;;;;;;;1.52;0.63;;;;;;;7.50;72.70;100048.28;5120737;28;20714;-81
2023/01/13 07:20:19;;;;;;;0.40;0.40;;;;;;;7.47;72.80;100055.31;5136454;28;20062;-82
2023/01/13 07:22:54;;;;;;;0.30;0.30;;;;;;;7.45;72.94;100051.88;5121608;28;20038;-82
2023/01/13 07:25:25;;;;;;;0.30;0.30;;;;;;;7.44;72.77;100045.81;5137880;28;20051;-81
2023/01/13 07:27:56;;;;;;;0.25;0.25;;;;;;;7.44;73.11;100047.59;5148934;28;20062;-83
2023/01/13 07:30:27;;;;;;;0.30;0.30;;;;;;;7.42;73.10;100055.44;5131586;28;20076;-83
2023/01/13 07:32:57;;;;;;;0.95;0.95;;;;;;;7.38;73.69;100053.81;5148096;28;20027;-83
2023/01/13 07:35:28;;;;;;;0.60;0.60;;;;;;;7.43;73.63;100057.16;5136138;28;20035;-83
2023/01/13 07:37:58;;;;;;;0.20;0.20;;;;;;;7.38;73.71;100056.41;5118766;28;20130;-82
2023/01/13 07:40:29;;;;;;;0.30;0.30;;;;;;;7.32;74.07;100060.03;5110562;28;20097;-84
2023/01/13 07:45:48;;;;;;;0.50;0.50;;;;;;;7.34;74.00;100071.31;5135867;28;20034;-83
2023/01/13 07:48:19;;;;;;;0.73;0.73;;;;;;;7.31;73.93;100081.81;5136873;28;20031;-83
2023/01/13 07:50:50;;;;;;;0.30;0.30;;;;;;;7.28;74.06;100075.81;5149443;28;20721;-83
2023/01/13 07:53:23;;;;;;;0.52;0.52;;;;;;;7.32;74.24;100082.66;5139289;28;20065;-83
2023/01/13 07:55:55;;;;;;;0.30;0.30;;;;;;;7.31;74.34;100081.81;5133052;28;20062;-83
2023/01/13 07:58:27;;;;;;;0.40;0.40;;;;;;;7.33;74.62;100077.41;5135302;28;20034;-83
2023/01/13 08:00:57;;;;;;;0.30;0.30;;;;;;;7.40;74.99;100085.94;5116630;29;20039;-83
2023/01/13 08:03:28;;;;;;;1.65;1.20;;;;;;;7.29;75.05;100077.53;5138076;28;20505;-83
2023/01/13 08:06:02;;;;;;;0.30;0.30;;;;;;;7.30;74.65;100071.41;5139814;28;20082;-83
2023/01/13 08:08:32;;;;;;;0.30;0.30;;;;;;;7.27;74.93;100076.69;5127662;28;20132;-83
2023/01/13 08:11:05;;;;;;;0.50;0.50;;;;;;;7.30;74.79;100079.25;5124909;28;20674;-83
2023/01/13 08:13:35;;;;;;;0.30;0.30;;;;;;;7.31;74.81;100080.97;5141263;28;20035;-83
2023/01/13 08:16:12;;;;;;;5.85;2.35;;;;;;;7.34;74.39;100086.09;5118576;28;20035;-83
2023/01/13 08:18:42;;;;;;;0.30;0.30;;;;;;;7.35;75.39;100082.59;5136861;28;20031;-83
2023/01/13 08:21:14;;;;;;;0.52;0.52;;;;;;;7.39;74.85;100086.84;5134149;28;20089;-83
2023/01/13 08:23:44;;;;;;;0.30;0.30;;;;;;;7.42;74.84;100083.31;5152080;28;20070;-83
2023/01/13 08:26:16;;;;;;;0.50;0.50;;;;;;;7.40;75.12;100086.81;5123700;28;20074;-83
2023/01/13 08:28:47;;;;;;;8.88;1.83;;;;;;;7.42;75.32;100094.59;5141254;28;20034;-83
2023/01/13 08:31:18;;;;;;;5.82;0.75;;;;;;;7.45;75.61;100094.53;5148994;28;20050;-84
2023/01/13 08:33:49;;;;;;;1.55;0.95;;;;;;;7.50;75.08;100091.81;5135696;28;20113;-83
2023/01/13 08:36:19;;;;;;;1.20;1.10;;;;;;;7.46;75.11;100098.84;5124947;28;20182;-83
2023/01/13 08:38:50;;;;;;;0.40;0.40;;;;;;;7.52;75.08;100106.53;5141839;28;20046;-84
2023/01/13 08:41:53;;;;;;;0.75;0.75;;;;;;;7.49;74.30;100106.59;5122658;28;20041;-82
2023/01/13 08:44:11;;;;;;;0.70;0.70;;;;;;;7.54;74.44;100099.53;5140001;28;20042;-82
2023/01/13 08:46:41;;;;;;;0.40;0.40;;;;;;;7.58;74.37;100110.75;5122370;28;20117;-82
2023/01/13 08:49:12;;;;;;;0.88;0.88;;;;;;;7.59;73.52;100112.47;5139550;28;20042;-82
2023/01/13 08:51:42;;;;;;;0.70;0.70;;;;;;;7.56;74.21;100113.38;5135951;28;20062;-82
2023/01/13 08:54:14;;;;;;;1.95;0.95;;;;;;;7.59;73.98;100111.59;5156254;28;20034;-82
2023/01/13 08:56:45;;;;;;;3.60;2.53;;;;;;;7.59;73.85;100112.47;5139903;28;20054;-82
2023/01/13 08:59:19;;;;;;;0.50;0.50;;;;;;;7.57;74.11;100120.31;5138067;28;20051;-82
2023/01/13 09:01:49;;;;;;;4.90;3.50;;;;;;;7.61;74.21;100109.81;5122386;28;20139;-82
2023/01/13 09:04:22;;;;;;;1.10;1.05;;;;;;;7.65;74.07;100098.38;5141457;28;20589;-82
2023/01/13 09:06:54;;;;;;;0.30;0.30;;;;;;;7.67;74.41;100104.44;5122705;28;20096;-82
2023/01/13 09:09:26;;;;;;;1.15;1.05;;;;;;;7.67;74.30;100107.91;5122993;28;20494;-82
2023/01/13 09:14:46;;;;;;;0.95;0.90;;;;;;;7.73;73.35;100112.09;5136805;28;20039;-82
2023/01/13 09:17:17;;;;;;;0.82;0.82;;;;;;;7.74;73.51;100115.59;5151351;28;20047;-82
2023/01/13 09:19:48;;;;;;;0.70;0.70;;;;;;;7.75;73.13;100105.09;5125592;28;20027;-82
2023/01/13 09:22:19;;;;;;;0.50;0.50;;;;;;;7.76;73.00;100101.59;5147504;28;20100;-82
2023/01/13 09:24:49;;;;;;;0.55;0.55;;;;;;;7.81;72.58;100107.53;5148789;28;20046;-82
2023/01/13 09:27:21;;;;;;;0.35;0.35;;;;;;;7.84;72.83;100102.25;5136505;28;20486;-81
2023/01/13 09:29:51;;;;;;;0.30;0.30;;;;;;;7.86;73.05;100118.75;5135658;28;20035;-82
2023/01/13 09:32:22;;;;;;;0.45;0.45;;;;;;;7.88;73.52;100122.19;5136128;28;20042;-83
2023/01/13 09:35:02;;;;;;;0.50;0.50;;;;;;;7.92;72.53;100116.88;5119251;28;20038;-82
2023/01/13 09:37:38;;;;;;;0.40;0.40;;;;;;;7.90;72.32;100121.25;5135324;28;20039;-82
2023/01/13 09:40:17;;;;;;;1.40;1.30;;;;;;;7.93;72.59;100126.41;5119637;28;20089;-82
2023/01/13 09:45:57;;;;;;;0.30;0.30;;;;;;;7.90;72.21;100121.25;5138001;28;20484;-83
2023/01/13 09:48:50;;;;;;;1.10;0.98;;;;;;;7.91;72.51;100133.44;5122087;28;20054;-82
2023/01/13 09:51:33;;;;;;;0.77;0.77;;;;;;;7.96;72.54;100136.81;5139113;28;20538;-82
2023/01/13 09:54:27;;;;;;;0.40;0.40;;;;;;;8.01;72.71;100143.63;5121365;28;20049;-82
2023/01/13 09:56:58;;;;;;;1.30;1.20;;;;;;;8.03;72.41;100126.13;5137961;28;20047;-82
2023/01/13 09:59:35;;;;;;;15.30;3.30;;;;;;;8.04;71.81;100137.47;5127077;28;20034;-82
2023/01/13 10:02:38;;;;;;;1.88;1.77;;;;;;;8.06;72.00;100134.81;5154993;28;20375;-83
2023/01/13 10:05:41;;;;;;;1.65;1.08;;;;;;;8.05;70.99;100131.34;5133852;28;20053;-82
2023/01/13 10:08:24;;;;;;;0.30;0.30;;;;;;;8.08;72.07;100140.84;5137140;28;20683;-82
2023/01/13 10:10:57;;;;;;;0.40;0.40;;;;;;;8.11;72.28;100144.25;5135696;28;20038;-82
2023/01/13 10:13:29;;;;;;;0.50;0.50;;;;;;;8.17;72.35;100157.13;5151219;28;20117;-82
2023/01/13 10:16:09;;;;;;;3.05;1.08;;;;;;;8.17;71.27;100156.28;5127673;28;20046;-82
2023/01/13 10:18:58;;;;;;;0.30;0.30;;;;;;;8.15;71.52;100158.94;5133653;28;20102;-83
2023/01/13 10:21:57;;;;;;;0.52;0.50;;;;;;;8.24;71.27;100146.50;5138147;28;20054;-82
2023/01/13 10:25:19;;;;;;;4.18;1.65;;;;;;;8.22;71.27;100156.19;5137140;28;20046;-81
2023/01/13 10:27:51;;;;;;;1.10;0.93;;;;;;;8.26;70.99;100169.13;5090975;28;20043;-81
2023/01/13 10:30:32;;;;;;;0.75;0.75;;;;;;;8.23;71.61;100160.47;5138205;28;20058;-82
2023/01/13 10:33:11;;;;;;;0.43;0.43;;;;;;;8.25;71.57;100159.56;5122045;28;20037;-82
2023/01/13 10:36:00;;;;;;;0.30;0.30;;;;;;;8.26;71.16;100160.41;5122623;28;20133;-82
2023/01/13 10:38:45;;;;;;;3.03;0.98;;;;;;;8.28;71.01;100162.06;5134085;28;20042;-82
2023/01/13 10:41:16;;;;;;;0.95;0.95;;;;;;;8.33;70.71;100161.94;5132798;28;20043;-82
2023/01/13 10:43:58;;;;;;;0.40;0.40;;;;;;;8.30;70.65;100167.28;5123389;28;20195;-82
2023/01/13 10:46:48;;;;;;;0.68;0.68;;;;;;;8.34;70.91;100158.44;5137257;28;20046;-80
2023/01/13 10:49:27;;;;;;;0.32;0.32;;;;;;;8.31;71.58;100172.47;5122728;28;20178;-81
2023/01/13 10:51:59;;;;;;;0.98;0.95;;;;;;;8.33;70.87;100164.56;5151111;28;20035;-82
2023/01/13 10:54:30;;;;;;;0.65;0.65;;;;;;;8.34;71.62;100169.78;5141265;28;20027;-81
2023/01/13 10:57:18;;;;;;;0.30;0.30;;;;;;;8.34;71.32;100176.75;5138273;28;20271;-82
2023/01/13 10:59:50;;;;;;;0.43;0.43;;;;;;;8.33;70.94;100178.50;5155059;28;20031;-82
2023/01/13 11:02:33;;;;;;;0.45;0.45;;;;;;;8.38;70.97;100185.38;5137600;28;20397;-81
2023/01/13 11:05:20;;;;;;;0.60;0.60;;;;;;;8.38;70.59;100182.75;5127000;28;20810;-82
2023/01/13 11:07:53;;;;;;;0.30;0.30;;;;;;;8.41;70.68;100186.13;5138851;28;20047;-81
2023/01/13 11:10:30;;;;;;;0.30;0.30;;;;;;;8.44;69.96;100185.19;5130081;28;20169;-80
2023/01/13 11:13:25;;;;;;;0.30;0.30;;;;;;;8.44;69.83;100196.53;5149344;28;20293;-80
2023/01/13 11:16:04;;;;;;;0.50;0.50;;;;;;;8.45;70.28;100193.00;5150244;28;20610;-80
2023/01/13 11:18:50;;;;;;;0.30;0.30;;;;;;;8.46;70.13;100181.66;5132033;28;20031;-80
2023/01/13 11:21:29;;;;;;;2.78;2.20;;;;;;;8.45;69.57;100187.78;5117385;28;20050;-80
2023/01/13 11:24:20;;;;;;;0.98;0.60;;;;;;;8.47;69.19;100190.38;5152389;28;20041;-80
2023/01/13 11:27:16;;;;;;;0.60;0.60;;;;;;;8.45;68.60;100177.31;5135774;28;20529;-80
2023/01/13 11:30:18;;;;;;;0.60;0.60;;;;;;;8.48;68.60;100187.72;5135496;28;20042;-80
2023/01/13 11:33:14;;;;;;;0.65;0.65;;;;;;;8.46;69.34;100181.66;5135687;28;20039;-80
2023/01/13 11:36:14;;;;;;;0.38;0.38;;;;;;;8.45;68.53;100174.72;5120010;28;20458;-80
2023/01/13 11:39:08;;;;;;;0.30;0.30;;;;;;;8.48;68.37;100182.47;5109198;28;20598;-81
2023/01/13 11:44:53;;;;;;;2.33;1.25;;;;;;;8.48;67.49;100208.63;5138775;28;20097;-81
2023/01/13 11:47:26;;;;;;;3.00;0.60;;;;;;;8.52;67.34;100200.72;5144190;28;20042;-82
2023/01/13 11:49:57;;;;;;;3.25;2.53;;;;;;;8.54;67.96;100201.53;5158567;28;20046;-82
2023/01/13 11:52:58;;;;;;;0.40;0.35;;;;;;;8.55;67.65;100205.88;5135513;28;20051;-81
2023/01/13 11:55:31;;;;;;;0.30;0.30;;;;;;;8.56;67.96;100205.81;5147012;28;20089;-82
2023/01/13 11:58:08;;;;;;;;;;;;;;;8.55;68.05;100203.25;5159210;28;20101;-81
2023/01/13 12:01:16;;;;;;;1.75;1.33;;;;;;;8.53;67.99;100199.81;5135070;28;20289;-81
2023/01/13 12:03:57;;;;;;;0.85;0.85;;;;;;;8.59;68.07;100199.66;5114281;28;20035;-82
2023/01/13 12:06:31;;;;;;;0.60;0.60;;;;;;;8.56;68.67;100211.06;5135542;28;20046;-82
2023/01/13 12:09:25;;;;;;;;;;;;;;;8.57;69.42;100198.81;5118447;28;20069;-82
2023/01/13 12:12:26;;;;;;;1.27;1.08;;;;;;;8.55;69.44;100205.88;5125989;28;19914;-82
2023/01/13 12:15:02;;;;;;;0.20;0.20;;;;;;;8.51;70.58;100220.78;5114095;28;20073;-81
2023/01/13 12:18:01;;;;;;;0.70;0.70;;;;;;;8.47;70.63;100200.84;5118591;28;20035;-82
2023/01/13 12:21:18;;;;;;;0.35;0.35;;;;;;;8.48;70.84;100205.16;5133428;28;20064;-82
2023/01/13 12:24:16;;;;;;;0.30;0.30;;;;;;;8.53;71.06;100194.59;5071661;29;20076;-81
2023/01/13 12:27:10;;;;;;;0.30;0.30;;;;;;;8.49;72.08;100210.34;5148687;28;20034;-80
2023/01/13 12:29:42;;;;;;;0.63;0.60;;;;;;;8.46;72.30;100217.38;5135530;28;20042;-82
2023/01/13 12:32:22;;;;;;;1.75;0.75;;;;;;;8.46;73.14;100236.56;5133319;28;20069;-82
2023/01/13 12:34:59;;;;;;;7.32;1.58;;;;;;;8.37;73.86;100233.31;5126802;28;20034;-82
2023/01/13 12:37:47;;;;;;;0.90;0.90;;;;;;;8.29;75.58;100236.97;5132647;28;20046;-81
2023/01/13 12:40:42;;;;;;;1.20;0.85;;;;;;;8.30;75.21;100245.69;5116015;28;20035;-82
2023/01/13 12:46:18;;;;;;;0.40;0.40;;;;;;;8.23;74.68;100251.94;5133796;28;20061;-84
2023/01/13 12:48:58;;;;;;;0.38;0.38;;;;;;;8.19;75.24;100256.41;5142746;28;20043;-82
2023/01/13 12:51:36;;;;;;;0.28;0.28;;;;;;;8.21;75.83;100272.06;5149576;28;20057;-84
2023/01/13 12:54:46;;;;;;;0.30;0.30;;;;;;;8.27;75.89;100259.69;5140587;28;20387;-83
2023/01/13 12:57:21;;;;;;;1.20;1.17;;;;;;;8.23;76.41;100265.00;5112470;28;20054;-84
2023/01/13 12:59:58;;;;;;;1.27;0.85;;;;;;;8.19;76.03;100265.13;5153745;28;20070;-85
2023/01/13 13:02:28;;;;;;;0.43;0.43;;;;;;;8.24;76.23;100272.84;5149364;28;20042;-83
2023/01/13 13:05:25;;;;;;;1.35;1.25;;;;;;;8.22;76.18;100279.84;5127323;28;20134;-85
2023/01/13 13:08:13;;;;;;;16.90;1.42;;;;;;;8.25;76.47;100279.78;5119558;28;20038;-85